Página principal
METAR-TAF:

METAR-TAF

Aeroportos :

Aeroporto Internacional de Luxemburgo-Findel

Luxemburgo, Luxemburgo

latitude: 49-37N, longitude: 006-13E, altura: 376 m

Observação actual do tempo

O boletim foi feito há 39 minutos, às 11:50 UTC
Vento 5 kt com direcção variável
Temperatura 25°C
Humidade 41%
Pressão 1025 hPa
Visibilidade 10 km ou mais
sem nuvens abaixo de 1500 metros e sem cumulonimbus

METAR: ELLX 231150Z VRB05KT CAVOK 25/11 Q1025 NOSIG

Hora: 14:29 (12:29 UTC)

Previsão

O boletim foi feito há 1 hora e 29 minutos, às 11:00 UTC
Previsão válida de 23 às 12 UTC a 24 às 18 UTC
Vento 9 kt de este
Visibilidade 10 km ou mais
sem nuvens abaixo de 1500 metros e sem cumulonimbus

TAF: ELLX 231100Z 2312/2418 08009KT CAVOK

Observações e previsões do tempo de mais de 4000 aeroportos (mensagens METAR e TAF).

As estações disponíveis são os pontos amarelos e vermelhos sobre o mapa.

Mova o rato sobre o mapa para ver o nome da estação.

Depois clique no ponto para visualizar as observações e previsões meteorológicas.

Para alterar o mapa : clique nos botões verdes com uma cruz preta para aumentar o zoom; no botão verde com uma pitada de zoom; ou nas setas verdes para mapas adjacentes.


METAR-TAF: